sensor_id;sensor_type;location;lat;lon;timestamp;P1;durP1;ratioP1;P2;durP2;ratioP2
65275;SDS011;51875;49.994;14.052;2022-12-24T00:00:22;8.02;;;4.90;;
65275;SDS011;51875;49.994;14.052;2022-12-24T00:01:59;7.43;;;4.50;;
65275;SDS011;51875;49.994;14.052;2022-12-24T00:03:14;5.93;;;4.10;;
65275;SDS011;51875;49.994;14.052;2022-12-24T00:04:30;8.70;;;5.07;;
65275;SDS011;51875;49.994;14.052;2022-12-24T00:05:45;8.80;;;5.07;;
65275;SDS011;51875;49.994;14.052;2022-12-24T00:07:01;11.07;;;5.15;;
65275;SDS011;51875;49.994;14.052;2022-12-24T00:08:17;11.70;;;6.57;;
65275;SDS011;51875;49.994;14.052;2022-12-24T00:09:33;11.07;;;6.20;;
65275;SDS011;51875;49.994;14.052;2022-12-24T00:10:52;10.80;;;6.15;;
65275;SDS011;51875;49.994;14.052;2022-12-24T00:12:08;9.80;;;5.05;;
65275;SDS011;51875;49.994;14.052;2022-12-24T00:13:24;8.15;;;5.22;;
65275;SDS011;51875;49.994;14.052;2022-12-24T00:14:40;7.80;;;4.72;;
65275;SDS011;51875;49.994;14.052;2022-12-24T00:15:55;5.90;;;3.20;;
65275;SDS011;51875;49.994;14.052;2022-12-24T00:17:11;9.55;;;5.28;;
65275;SDS011;51875;49.994;14.052;2022-12-24T00:18:26;9.43;;;4.60;;
65275;SDS011;51875;49.994;14.052;2022-12-24T00:19:42;6.70;;;4.40;;
65275;SDS011;51875;49.994;14.052;2022-12-24T00:20:58;7.13;;;3.55;;
65275;SDS011;51875;49.994;14.052;2022-12-24T00:22:14;8.27;;;4.18;;
65275;SDS011;51875;49.994;14.052;2022-12-24T00:23:29;6.47;;;3.70;;
65275;SDS011;51875;49.994;14.052;2022-12-24T00:24:45;7.00;;;4.15;;
65275;SDS011;51875;49.994;14.052;2022-12-24T00:26:00;10.85;;;4.03;;
65275;SDS011;51875;49.994;14.052;2022-12-24T00:27:16;7.47;;;4.13;;
65275;SDS011;51875;49.994;14.052;2022-12-24T00:28:32;6.53;;;3.78;;
65275;SDS011;51875;49.994;14.052;2022-12-24T00:29:47;6.18;;;3.17;;
65275;SDS011;51875;49.994;14.052;2022-12-24T00:31:07;4.78;;;3.20;;
65275;SDS011;51875;49.994;14.052;2022-12-24T00:32:24;5.72;;;3.17;;
65275;SDS011;51875;49.994;14.052;2022-12-24T00:33:39;5.78;;;3.20;;
65275;SDS011;51875;49.994;14.052;2022-12-24T00:34:55;5.55;;;3.40;;
65275;SDS011;51875;49.994;14.052;2022-12-24T00:36:10;4.75;;;3.00;;
65275;SDS011;51875;49.994;14.052;2022-12-24T00:37:26;4.28;;;2.40;;
65275;SDS011;51875;49.994;14.052;2022-12-24T00:38:42;4.97;;;2.60;;
65275;SDS011;51875;49.994;14.052;2022-12-24T00:39:58;5.50;;;2.75;;
65275;SDS011;51875;49.994;14.052;2022-12-24T00:41:14;4.32;;;2.45;;
65275;SDS011;51875;49.994;14.052;2022-12-24T00:42:39;3.80;;;2.10;;
65275;SDS011;51875;49.994;14.052;2022-12-24T00:44:02;3.33;;;1.95;;
65275;SDS011;51875;49.994;14.052;2022-12-24T00:45:26;3.00;;;1.70;;
65275;SDS011;51875;49.994;14.052;2022-12-24T00:46:42;4.72;;;1.77;;
65275;SDS011;51875;49.994;14.052;2022-12-24T00:47:57;2.92;;;1.70;;
65275;SDS011;51875;49.994;14.052;2022-12-24T00:49:13;3.53;;;1.38;;
65275;SDS011;51875;49.994;14.052;2022-12-24T00:50:29;3.05;;;1.80;;
65275;SDS011;51875;49.994;14.052;2022-12-24T00:51:45;3.97;;;2.03;;
65275;SDS011;51875;49.994;14.052;2022-12-24T00:53:00;4.05;;;2.13;;
65275;SDS011;51875;49.994;14.052;2022-12-24T00:54:16;2.30;;;1.55;;
65275;SDS011;51875;49.994;14.052;2022-12-24T00:55:31;7.25;;;2.15;;
65275;SDS011;51875;49.994;14.052;2022-12-24T00:56:47;4.07;;;2.10;;
65275;SDS011;51875;49.994;14.052;2022-12-24T00:58:03;4.10;;;2.40;;
65275;SDS011;51875;49.994;14.052;2022-12-24T00:59:18;3.80;;;1.95;;
65275;SDS011;51875;49.994;14.052;2022-12-24T01:00:34;2.70;;;1.50;;
65275;SDS011;51875;49.994;14.052;2022-12-24T01:01:49;3.30;;;1.27;;
65275;SDS011;51875;49.994;14.052;2022-12-24T01:03:05;3.47;;;1.40;;
65275;SDS011;51875;49.994;14.052;2022-12-24T01:04:21;2.33;;;1.45;;
65275;SDS011;51875;49.994;14.052;2022-12-24T01:05:55;2.30;;;1.33;;
65275;SDS011;51875;49.994;14.052;2022-12-24T01:07:12;2.65;;;1.25;;
65275;SDS011;51875;49.994;14.052;2022-12-24T01:08:27;2.80;;;0.95;;
65275;SDS011;51875;49.994;14.052;2022-12-24T01:09:43;1.20;;;0.70;;
65275;SDS011;51875;49.994;14.052;2022-12-24T01:10:59;0.73;;;0.70;;
65275;SDS011;51875;49.994;14.052;2022-12-24T01:12:16;1.13;;;0.60;;
65275;SDS011;51875;49.994;14.052;2022-12-24T01:13:31;1.02;;;0.68;;
65275;SDS011;51875;49.994;14.052;2022-12-24T01:14:47;1.10;;;0.60;;
65275;SDS011;51875;49.994;14.052;2022-12-24T01:16:03;1.00;;;0.70;;
65275;SDS011;51875;49.994;14.052;2022-12-24T01:17:31;1.30;;;0.52;;
65275;SDS011;51875;49.994;14.052;2022-12-24T01:18:47;1.25;;;0.85;;
65275;SDS011;51875;49.994;14.052;2022-12-24T01:20:03;3.85;;;0.80;;
65275;SDS011;51875;49.994;14.052;2022-12-24T01:21:20;2.03;;;1.00;;
65275;SDS011;51875;49.994;14.052;2022-12-24T01:22:36;1.02;;;0.70;;
65275;SDS011;51875;49.994;14.052;2022-12-24T01:23:51;1.80;;;0.60;;
65275;SDS011;51875;49.994;14.052;2022-12-24T01:25:07;3.13;;;0.70;;
65275;SDS011;51875;49.994;14.052;2022-12-24T01:26:24;2.63;;;0.80;;
65275;SDS011;51875;49.994;14.052;2022-12-24T01:27:39;1.02;;;0.70;;
65275;SDS011;51875;49.994;14.052;2022-12-24T01:28:55;2.40;;;0.80;;
65275;SDS011;51875;49.994;14.052;2022-12-24T01:30:12;1.63;;;0.80;;
65275;SDS011;51875;49.994;14.052;2022-12-24T01:31:29;0.75;;;0.65;;
65275;SDS011;51875;49.994;14.052;2022-12-24T01:32:44;0.93;;;0.63;;
65275;SDS011;51875;49.994;14.052;2022-12-24T01:34:00;0.70;;;0.50;;
65275;SDS011;51875;49.994;14.052;2022-12-24T01:35:15;1.85;;;0.88;;
65275;SDS011;51875;49.994;14.052;2022-12-24T01:36:32;1.33;;;0.52;;
65275;SDS011;51875;49.994;14.052;2022-12-24T01:37:47;2.35;;;0.68;;
65275;SDS011;51875;49.994;14.052;2022-12-24T01:39:03;2.45;;;0.60;;
65275;SDS011;51875;49.994;14.052;2022-12-24T01:40:19;1.15;;;0.80;;
65275;SDS011;51875;49.994;14.052;2022-12-24T01:41:53;1.67;;;0.60;;
65275;SDS011;51875;49.994;14.052;2022-12-24T01:43:29;1.20;;;0.63;;
65275;SDS011;51875;49.994;14.052;2022-12-24T01:44:47;1.17;;;0.68;;
65275;SDS011;51875;49.994;14.052;2022-12-24T01:46:06;1.05;;;0.70;;
65275;SDS011;51875;49.994;14.052;2022-12-24T01:47:30;1.05;;;0.60;;
65275;SDS011;51875;49.994;14.052;2022-12-24T01:48:46;3.03;;;0.70;;
65275;SDS011;51875;49.994;14.052;2022-12-24T01:50:12;3.70;;;0.70;;
65275;SDS011;51875;49.994;14.052;2022-12-24T01:52:15;1.90;;;1.08;;
65275;SDS011;51875;49.994;14.052;2022-12-24T01:53:12;1.67;;;0.77;;
65275;SDS011;51875;49.994;14.052;2022-12-24T01:54:33;3.47;;;1.10;;
65275;SDS011;51875;49.994;14.052;2022-12-24T01:55:54;2.25;;;0.60;;
65275;SDS011;51875;49.994;14.052;2022-12-24T01:57:12;0.77;;;0.52;;
65275;SDS011;51875;49.994;14.052;2022-12-24T01:58:32;2.63;;;0.85;;
65275;SDS011;51875;49.994;14.052;2022-12-24T01:59:52;2.17;;;0.70;;
65275;SDS011;51875;49.994;14.052;2022-12-24T02:01:12;2.67;;;0.60;;
65275;SDS011;51875;49.994;14.052;2022-12-24T02:02:28;4.03;;;0.80;;
65275;SDS011;51875;49.994;14.052;2022-12-24T02:03:44;2.33;;;0.70;;
65275;SDS011;51875;49.994;14.052;2022-12-24T02:05:01;1.55;;;0.68;;
65275;SDS011;51875;49.994;14.052;2022-12-24T02:06:20;1.13;;;0.50;;
65275;SDS011;51875;49.994;14.052;2022-12-24T02:07:37;1.58;;;0.65;;
65275;SDS011;51875;49.994;14.052;2022-12-24T02:08:53;2.00;;;0.80;;
65275;SDS011;51875;49.994;14.052;2022-12-24T02:10:11;1.60;;;0.60;;
65275;SDS011;51875;49.994;14.052;2022-12-24T02:11:27;2.53;;;0.63;;
65275;SDS011;51875;49.994;14.052;2022-12-24T02:12:44;5.50;;;0.90;;
65275;SDS011;51875;49.994;14.052;2022-12-24T02:14:01;1.70;;;0.88;;
65275;SDS011;51875;49.994;14.052;2022-12-24T02:15:17;0.95;;;0.70;;
65275;SDS011;51875;49.994;14.052;2022-12-24T02:17:17;3.15;;;0.70;;
65275;SDS011;51875;49.994;14.052;2022-12-24T02:18:29;1.38;;;0.80;;
65275;SDS011;51875;49.994;14.052;2022-12-24T02:20:00;2.50;;;0.90;;
65275;SDS011;51875;49.994;14.052;2022-12-24T02:21:35;3.47;;;0.90;;
65275;SDS011;51875;49.994;14.052;2022-12-24T02:26:54;2.72;;;0.68;;
65275;SDS011;51875;49.994;14.052;2022-12-24T02:28:26;2.58;;;0.65;;
65275;SDS011;51875;49.994;14.052;2022-12-24T02:30:53;2.00;;;0.80;;
65275;SDS011;51875;49.994;14.052;2022-12-24T02:31:49;2.10;;;0.60;;
65275;SDS011;51875;49.994;14.052;2022-12-24T02:34:43;3.88;;;1.10;;
65275;SDS011;51875;49.994;14.052;2022-12-24T02:36:09;3.03;;;0.75;;
65275;SDS011;51875;49.994;14.052;2022-12-24T02:37:32;2.00;;;0.75;;
65275;SDS011;51875;49.994;14.052;2022-12-24T02:38:53;1.45;;;0.70;;
65275;SDS011;51875;49.994;14.052;2022-12-24T02:40:28;2.83;;;0.80;;
65275;SDS011;51875;49.994;14.052;2022-12-24T02:41:52;1.77;;;0.70;;
65275;SDS011;51875;49.994;14.052;2022-12-24T02:43:21;1.75;;;0.68;;
65275;SDS011;51875;49.994;14.052;2022-12-24T02:44:44;1.80;;;0.55;;
65275;SDS011;51875;49.994;14.052;2022-12-24T02:46:11;0.50;;;0.50;;
65275;SDS011;51875;49.994;14.052;2022-12-24T02:47:30;2.22;;;1.02;;
65275;SDS011;51875;49.994;14.052;2022-12-24T02:48:46;3.50;;;0.63;;
65275;SDS011;51875;49.994;14.052;2022-12-24T02:50:04;0.70;;;0.55;;
65275;SDS011;51875;49.994;14.052;2022-12-24T02:51:23;2.22;;;0.90;;
65275;SDS011;51875;49.994;14.052;2022-12-24T02:52:40;1.05;;;0.60;;
65275;SDS011;51875;49.994;14.052;2022-12-24T02:53:59;1.50;;;0.88;;
65275;SDS011;51875;49.994;14.052;2022-12-24T02:55:17;6.60;;;1.00;;
65275;SDS011;51875;49.994;14.052;2022-12-24T02:58:07;3.42;;;1.02;;
65275;SDS011;51875;49.994;14.052;2022-12-24T02:59:40;2.05;;;1.02;;
65275;SDS011;51875;49.994;14.052;2022-12-24T03:02:38;6.85;;;1.02;;
65275;SDS011;51875;49.994;14.052;2022-12-24T03:06:59;4.35;;;0.95;;
65275;SDS011;51875;49.994;14.052;2022-12-24T03:08:43;1.17;;;0.50;;
65275;SDS011;51875;49.994;14.052;2022-12-24T03:11:37;3.58;;;0.82;;
65275;SDS011;51875;49.994;14.052;2022-12-24T03:13:02;2.20;;;0.85;;
65275;SDS011;51875;49.994;14.052;2022-12-24T03:14:21;7.32;;;0.80;;
65275;SDS011;51875;49.994;14.052;2022-12-24T03:15:37;3.35;;;0.77;;
65275;SDS011;51875;49.994;14.052;2022-12-24T03:16:54;2.95;;;0.88;;
65275;SDS011;51875;49.994;14.052;2022-12-24T03:18:13;2.75;;;1.27;;
65275;SDS011;51875;49.994;14.052;2022-12-24T03:20:57;1.88;;;0.70;;
65275;SDS011;51875;49.994;14.052;2022-12-24T03:22:19;2.78;;;0.68;;
65275;SDS011;51875;49.994;14.052;2022-12-24T03:23:36;4.40;;;0.93;;
65275;SDS011;51875;49.994;14.052;2022-12-24T03:24:52;2.80;;;1.08;;
65275;SDS011;51875;49.994;14.052;2022-12-24T03:26:08;2.58;;;0.80;;
65275;SDS011;51875;49.994;14.052;2022-12-24T03:27:27;2.78;;;0.65;;
65275;SDS011;51875;49.994;14.052;2022-12-24T03:28:45;3.53;;;0.88;;
65275;SDS011;51875;49.994;14.052;2022-12-24T03:30:01;4.45;;;0.80;;
65275;SDS011;51875;49.994;14.052;2022-12-24T03:31:19;4.60;;;1.08;;
65275;SDS011;51875;49.994;14.052;2022-12-24T03:32:35;2.75;;;1.05;;
65275;SDS011;51875;49.994;14.052;2022-12-24T03:33:50;6.13;;;0.80;;
65275;SDS011;51875;49.994;14.052;2022-12-24T03:35:06;4.57;;;0.85;;
65275;SDS011;51875;49.994;14.052;2022-12-24T03:36:23;2.22;;;0.80;;
65275;SDS011;51875;49.994;14.052;2022-12-24T03:37:39;2.97;;;0.60;;
65275;SDS011;51875;49.994;14.052;2022-12-24T03:38:55;2.70;;;0.85;;
65275;SDS011;51875;49.994;14.052;2022-12-24T03:40:10;4.07;;;1.20;;
65275;SDS011;51875;49.994;14.052;2022-12-24T03:41:26;1.17;;;0.65;;
65275;SDS011;51875;49.994;14.052;2022-12-24T03:42:42;3.08;;;0.88;;
65275;SDS011;51875;49.994;14.052;2022-12-24T03:43:57;3.25;;;0.75;;
65275;SDS011;51875;49.994;14.052;2022-12-24T03:45:13;3.08;;;0.90;;
65275;SDS011;51875;49.994;14.052;2022-12-24T03:46:29;2.70;;;0.88;;
65275;SDS011;51875;49.994;14.052;2022-12-24T03:47:44;2.40;;;1.00;;
65275;SDS011;51875;49.994;14.052;2022-12-24T03:49:00;5.93;;;0.93;;
65275;SDS011;51875;49.994;14.052;2022-12-24T03:50:16;4.22;;;0.90;;
65275;SDS011;51875;49.994;14.052;2022-12-24T03:51:31;4.55;;;1.23;;
65275;SDS011;51875;49.994;14.052;2022-12-24T03:52:47;2.88;;;0.80;;
65275;SDS011;51875;49.994;14.052;2022-12-24T03:54:02;5.78;;;1.90;;
65275;SDS011;51875;49.994;14.052;2022-12-24T03:55:18;2.38;;;0.98;;
65275;SDS011;51875;49.994;14.052;2022-12-24T03:56:34;2.65;;;0.80;;
65275;SDS011;51875;49.994;14.052;2022-12-24T03:57:49;2.92;;;0.60;;
65275;SDS011;51875;49.994;14.052;2022-12-24T03:59:05;3.30;;;1.15;;
65275;SDS011;51875;49.994;14.052;2022-12-24T04:00:21;5.22;;;0.70;;
65275;SDS011;51875;49.994;14.052;2022-12-24T04:01:36;3.17;;;0.75;;
65275;SDS011;51875;49.994;14.052;2022-12-24T04:02:52;2.53;;;0.60;;
65275;SDS011;51875;49.994;14.052;2022-12-24T04:04:08;2.65;;;0.80;;
65275;SDS011;51875;49.994;14.052;2022-12-24T04:05:23;1.98;;;1.10;;
65275;SDS011;51875;49.994;14.052;2022-12-24T04:06:39;4.72;;;0.90;;
65275;SDS011;51875;49.994;14.052;2022-12-24T04:07:54;4.22;;;0.80;;
65275;SDS011;51875;49.994;14.052;2022-12-24T04:09:10;2.55;;;0.50;;
65275;SDS011;51875;49.994;14.052;2022-12-24T04:10:26;2.72;;;0.90;;
65275;SDS011;51875;49.994;14.052;2022-12-24T04:11:41;4.53;;;0.80;;
65275;SDS011;51875;49.994;14.052;2022-12-24T04:12:57;2.47;;;0.90;;
65275;SDS011;51875;49.994;14.052;2022-12-24T04:14:12;2.13;;;0.70;;
65275;SDS011;51875;49.994;14.052;2022-12-24T04:15:28;3.65;;;0.70;;
65275;SDS011;51875;49.994;14.052;2022-12-24T04:16:44;2.25;;;0.80;;
65275;SDS011;51875;49.994;14.052;2022-12-24T04:17:59;6.95;;;1.27;;
65275;SDS011;51875;49.994;14.052;2022-12-24T04:19:15;2.15;;;1.02;;
65275;SDS011;51875;49.994;14.052;2022-12-24T04:20:30;2.75;;;1.00;;
65275;SDS011;51875;49.994;14.052;2022-12-24T04:21:46;1.20;;;0.60;;
65275;SDS011;51875;49.994;14.052;2022-12-24T04:23:02;4.20;;;1.35;;
65275;SDS011;51875;49.994;14.052;2022-12-24T04:24:17;2.05;;;0.70;;
65275;SDS011;51875;49.994;14.052;2022-12-24T04:25:33;8.27;;;1.25;;
65275;SDS011;51875;49.994;14.052;2022-12-24T04:26:49;1.77;;;0.73;;
65275;SDS011;51875;49.994;14.052;2022-12-24T04:28:04;6.40;;;0.93;;
65275;SDS011;51875;49.994;14.052;2022-12-24T04:29:20;5.95;;;0.70;;
65275;SDS011;51875;49.994;14.052;2022-12-24T04:30:37;2.55;;;0.82;;
65275;SDS011;51875;49.994;14.052;2022-12-24T04:31:53;2.83;;;0.95;;
65275;SDS011;51875;49.994;14.052;2022-12-24T04:33:09;3.50;;;0.73;;
65275;SDS011;51875;49.994;14.052;2022-12-24T04:34:25;2.90;;;0.98;;
65275;SDS011;51875;49.994;14.052;2022-12-24T04:35:41;4.35;;;0.90;;
65275;SDS011;51875;49.994;14.052;2022-12-24T04:36:57;3.85;;;0.90;;
65275;SDS011;51875;49.994;14.052;2022-12-24T04:38:12;5.43;;;0.98;;
65275;SDS011;51875;49.994;14.052;2022-12-24T04:39:28;2.00;;;0.80;;
65275;SDS011;51875;49.994;14.052;2022-12-24T04:40:44;3.40;;;1.23;;
65275;SDS011;51875;49.994;14.052;2022-12-24T04:41:59;5.10;;;1.13;;
65275;SDS011;51875;49.994;14.052;2022-12-24T04:43:15;2.90;;;1.27;;
65275;SDS011;51875;49.994;14.052;2022-12-24T04:44:30;4.70;;;0.77;;
65275;SDS011;51875;49.994;14.052;2022-12-24T04:45:46;7.82;;;1.02;;
65275;SDS011;51875;49.994;14.052;2022-12-24T04:47:02;2.83;;;0.88;;
65275;SDS011;51875;49.994;14.052;2022-12-24T04:48:17;3.53;;;0.80;;
65275;SDS011;51875;49.994;14.052;2022-12-24T04:49:33;4.05;;;0.93;;
65275;SDS011;51875;49.994;14.052;2022-12-24T04:50:48;5.68;;;1.20;;
65275;SDS011;51875;49.994;14.052;2022-12-24T04:52:04;2.47;;;1.15;;
65275;SDS011;51875;49.994;14.052;2022-12-24T04:53:20;6.82;;;1.50;;
65275;SDS011;51875;49.994;14.052;2022-12-24T04:54:35;4.70;;;1.02;;
65275;SDS011;51875;49.994;14.052;2022-12-24T04:55:51;4.95;;;1.10;;
65275;SDS011;51875;49.994;14.052;2022-12-24T04:57:06;1.33;;;0.80;;
65275;SDS011;51875;49.994;14.052;2022-12-24T04:58:22;3.22;;;1.05;;
65275;SDS011;51875;49.994;14.052;2022-12-24T04:59:38;3.45;;;0.90;;
65275;SDS011;51875;49.994;14.052;2022-12-24T05:00:54;4.25;;;0.90;;
65275;SDS011;51875;49.994;14.052;2022-12-24T05:02:10;4.40;;;0.93;;
65275;SDS011;51875;49.994;14.052;2022-12-24T05:03:25;4.72;;;1.08;;
65275;SDS011;51875;49.994;14.052;2022-12-24T05:04:41;2.78;;;0.90;;
65275;SDS011;51875;49.994;14.052;2022-12-24T05:06:01;2.40;;;0.73;;
65275;SDS011;51875;49.994;14.052;2022-12-24T05:07:20;1.50;;;0.70;;
65275;SDS011;51875;49.994;14.052;2022-12-24T05:08:36;4.35;;;1.25;;
65275;SDS011;51875;49.994;14.052;2022-12-24T05:09:52;2.47;;;0.47;;
65275;SDS011;51875;49.994;14.052;2022-12-24T05:11:08;5.45;;;1.05;;
65275;SDS011;51875;49.994;14.052;2022-12-24T05:12:28;1.95;;;0.70;;
65275;SDS011;51875;49.994;14.052;2022-12-24T05:13:44;4.38;;;1.38;;
65275;SDS011;51875;49.994;14.052;2022-12-24T05:14:59;2.03;;;0.75;;
65275;SDS011;51875;49.994;14.052;2022-12-24T05:16:16;2.67;;;0.57;;
65275;SDS011;51875;49.994;14.052;2022-12-24T05:17:33;5.07;;;1.25;;
65275;SDS011;51875;49.994;14.052;2022-12-24T05:18:49;3.33;;;0.90;;
65275;SDS011;51875;49.994;14.052;2022-12-24T05:20:05;4.15;;;0.60;;
65275;SDS011;51875;49.994;14.052;2022-12-24T05:21:22;3.17;;;0.73;;
65275;SDS011;51875;49.994;14.052;2022-12-24T05:22:38;3.70;;;0.73;;
65275;SDS011;51875;49.994;14.052;2022-12-24T05:24:13;2.13;;;0.52;;
65275;SDS011;51875;49.994;14.052;2022-12-24T05:26:17;2.05;;;0.50;;
65275;SDS011;51875;49.994;14.052;2022-12-24T05:27:41;1.58;;;0.90;;
65275;SDS011;51875;49.994;14.052;2022-12-24T05:28:57;2.42;;;1.40;;
65275;SDS011;51875;49.994;14.052;2022-12-24T05:30:14;3.15;;;0.80;;
65275;SDS011;51875;49.994;14.052;2022-12-24T05:31:31;2.00;;;0.93;;
65275;SDS011;51875;49.994;14.052;2022-12-24T05:32:47;2.13;;;0.57;;
65275;SDS011;51875;49.994;14.052;2022-12-24T05:34:03;2.83;;;0.70;;
65275;SDS011;51875;49.994;14.052;2022-12-24T05:35:18;3.40;;;0.90;;
65275;SDS011;51875;49.994;14.052;2022-12-24T05:36:34;2.55;;;0.95;;
65275;SDS011;51875;49.994;14.052;2022-12-24T05:37:50;5.03;;;0.95;;
65275;SDS011;51875;49.994;14.052;2022-12-24T05:39:06;1.70;;;0.70;;
65275;SDS011;51875;49.994;14.052;2022-12-24T05:40:21;2.50;;;0.88;;
65275;SDS011;51875;49.994;14.052;2022-12-24T05:41:37;3.65;;;1.38;;
65275;SDS011;51875;49.994;14.052;2022-12-24T05:42:53;3.05;;;0.85;;
65275;SDS011;51875;49.994;14.052;2022-12-24T05:44:08;2.58;;;0.93;;
65275;SDS011;51875;49.994;14.052;2022-12-24T05:45:24;3.25;;;0.60;;
65275;SDS011;51875;49.994;14.052;2022-12-24T05:46:39;4.85;;;1.10;;
65275;SDS011;51875;49.994;14.052;2022-12-24T05:47:55;4.25;;;1.02;;
65275;SDS011;51875;49.994;14.052;2022-12-24T05:49:11;5.97;;;0.90;;
65275;SDS011;51875;49.994;14.052;2022-12-24T05:50:27;3.65;;;0.95;;
65275;SDS011;51875;49.994;14.052;2022-12-24T05:51:43;4.35;;;0.85;;
65275;SDS011;51875;49.994;14.052;2022-12-24T05:52:58;2.17;;;1.10;;
65275;SDS011;51875;49.994;14.052;2022-12-24T05:54:14;3.55;;;1.20;;
65275;SDS011;51875;49.994;14.052;2022-12-24T05:55:30;4.53;;;1.10;;
65275;SDS011;51875;49.994;14.052;2022-12-24T05:56:45;2.80;;;0.57;;
65275;SDS011;51875;49.994;14.052;2022-12-24T05:58:01;4.85;;;0.70;;
65275;SDS011;51875;49.994;14.052;2022-12-24T05:59:16;2.17;;;0.80;;
65275;SDS011;51875;49.994;14.052;2022-12-24T06:00:32;2.22;;;0.82;;
65275;SDS011;51875;49.994;14.052;2022-12-24T06:01:48;2.42;;;0.80;;
65275;SDS011;51875;49.994;14.052;2022-12-24T06:03:03;3.47;;;0.93;;
65275;SDS011;51875;49.994;14.052;2022-12-24T06:04:19;1.98;;;0.80;;
65275;SDS011;51875;49.994;14.052;2022-12-24T06:05:35;3.38;;;0.90;;
65275;SDS011;51875;49.994;14.052;2022-12-24T06:06:51;4.35;;;1.42;;
65275;SDS011;51875;49.994;14.052;2022-12-24T06:08:07;3.45;;;0.90;;
65275;SDS011;51875;49.994;14.052;2022-12-24T06:09:22;3.92;;;1.60;;
65275;SDS011;51875;49.994;14.052;2022-12-24T06:10:38;5.93;;;1.58;;
65275;SDS011;51875;49.994;14.052;2022-12-24T06:11:53;1.45;;;0.80;;
65275;SDS011;51875;49.994;14.052;2022-12-24T06:13:09;4.30;;;1.00;;
65275;SDS011;51875;49.994;14.052;2022-12-24T06:14:24;6.03;;;1.20;;
65275;SDS011;51875;49.994;14.052;2022-12-24T06:15:40;2.55;;;0.90;;
65275;SDS011;51875;49.994;14.052;2022-12-24T06:16:55;4.32;;;1.42;;
65275;SDS011;51875;49.994;14.052;2022-12-24T06:18:11;4.82;;;0.90;;
65275;SDS011;51875;49.994;14.052;2022-12-24T06:19:26;5.13;;;0.88;;
65275;SDS011;51875;49.994;14.052;2022-12-24T06:20:42;4.22;;;1.35;;
65275;SDS011;51875;49.994;14.052;2022-12-24T06:21:58;3.92;;;0.98;;
65275;SDS011;51875;49.994;14.052;2022-12-24T06:23:13;2.00;;;0.80;;
65275;SDS011;51875;49.994;14.052;2022-12-24T06:24:29;5.13;;;0.77;;
65275;SDS011;51875;49.994;14.052;2022-12-24T06:25:45;3.05;;;0.98;;
65275;SDS011;51875;49.994;14.052;2022-12-24T06:27:01;5.18;;;1.20;;
65275;SDS011;51875;49.994;14.052;2022-12-24T06:28:17;5.38;;;1.30;;
65275;SDS011;51875;49.994;14.052;2022-12-24T06:29:33;5.70;;;1.02;;
65275;SDS011;51875;49.994;14.052;2022-12-24T06:30:49;4.55;;;1.13;;
65275;SDS011;51875;49.994;14.052;2022-12-24T06:32:04;4.82;;;1.10;;
65275;SDS011;51875;49.994;14.052;2022-12-24T06:33:20;5.45;;;1.25;;
65275;SDS011;51875;49.994;14.052;2022-12-24T06:34:36;6.38;;;1.38;;
65275;SDS011;51875;49.994;14.052;2022-12-24T06:35:52;2.40;;;0.85;;
65275;SDS011;51875;49.994;14.052;2022-12-24T06:37:07;3.03;;;0.93;;
65275;SDS011;51875;49.994;14.052;2022-12-24T06:38:30;2.45;;;0.80;;
65275;SDS011;51875;49.994;14.052;2022-12-24T06:39:46;4.72;;;0.63;;
65275;SDS011;51875;49.994;14.052;2022-12-24T06:41:04;2.45;;;0.70;;
65275;SDS011;51875;49.994;14.052;2022-12-24T06:42:20;3.63;;;0.90;;
65275;SDS011;51875;49.994;14.052;2022-12-24T06:43:36;3.42;;;0.82;;
65275;SDS011;51875;49.994;14.052;2022-12-24T06:44:52;3.85;;;1.08;;
65275;SDS011;51875;49.994;14.052;2022-12-24T06:46:07;6.25;;;1.08;;
65275;SDS011;51875;49.994;14.052;2022-12-24T06:47:23;3.72;;;0.90;;
65275;SDS011;51875;49.994;14.052;2022-12-24T06:48:39;4.18;;;1.13;;
65275;SDS011;51875;49.994;14.052;2022-12-24T06:49:55;2.80;;;1.10;;
65275;SDS011;51875;49.994;14.052;2022-12-24T06:51:11;2.22;;;0.88;;
65275;SDS011;51875;49.994;14.052;2022-12-24T06:52:28;3.30;;;0.90;;
65275;SDS011;51875;49.994;14.052;2022-12-24T06:53:44;7.50;;;1.40;;
65275;SDS011;51875;49.994;14.052;2022-12-24T06:54:59;3.22;;;1.08;;
65275;SDS011;51875;49.994;14.052;2022-12-24T06:56:15;3.78;;;0.82;;
65275;SDS011;51875;49.994;14.052;2022-12-24T06:57:31;1.40;;;0.90;;
65275;SDS011;51875;49.994;14.052;2022-12-24T06:58:47;5.05;;;0.95;;
65275;SDS011;51875;49.994;14.052;2022-12-24T07:00:03;8.18;;;1.00;;
65275;SDS011;51875;49.994;14.052;2022-12-24T07:01:20;4.60;;;1.00;;
65275;SDS011;51875;49.994;14.052;2022-12-24T07:02:39;4.35;;;1.10;;
65275;SDS011;51875;49.994;14.052;2022-12-24T07:03:55;6.68;;;1.70;;
65275;SDS011;51875;49.994;14.052;2022-12-24T07:05:11;6.80;;;1.23;;
65275;SDS011;51875;49.994;14.052;2022-12-24T07:06:28;4.38;;;1.45;;
65275;SDS011;51875;49.994;14.052;2022-12-24T07:07:44;1.70;;;1.02;;
65275;SDS011;51875;49.994;14.052;2022-12-24T07:09:00;3.72;;;1.23;;
65275;SDS011;51875;49.994;14.052;2022-12-24T07:10:16;4.82;;;1.20;;
65275;SDS011;51875;49.994;14.052;2022-12-24T07:11:31;2.83;;;1.50;;
65275;SDS011;51875;49.994;14.052;2022-12-24T07:12:47;4.32;;;1.33;;
65275;SDS011;51875;49.994;14.052;2022-12-24T07:14:03;7.82;;;1.48;;
65275;SDS011;51875;49.994;14.052;2022-12-24T07:15:19;4.93;;;1.85;;
65275;SDS011;51875;49.994;14.052;2022-12-24T07:16:34;5.65;;;1.45;;
65275;SDS011;51875;49.994;14.052;2022-12-24T07:17:50;3.72;;;1.33;;
65275;SDS011;51875;49.994;14.052;2022-12-24T07:19:05;3.78;;;0.95;;
65275;SDS011;51875;49.994;14.052;2022-12-24T07:20:21;8.52;;;1.40;;
65275;SDS011;51875;49.994;14.052;2022-12-24T07:21:36;4.53;;;1.15;;
65275;SDS011;51875;49.994;14.052;2022-12-24T07:22:52;2.00;;;1.00;;
65275;SDS011;51875;49.994;14.052;2022-12-24T07:24:08;5.57;;;1.27;;
65275;SDS011;51875;49.994;14.052;2022-12-24T07:25:23;5.15;;;1.30;;
65275;SDS011;51875;49.994;14.052;2022-12-24T07:26:39;3.33;;;0.77;;
65275;SDS011;51875;49.994;14.052;2022-12-24T07:27:55;5.20;;;1.38;;
65275;SDS011;51875;49.994;14.052;2022-12-24T07:29:10;4.20;;;1.40;;
65275;SDS011;51875;49.994;14.052;2022-12-24T07:30:26;2.92;;;1.10;;
65275;SDS011;51875;49.994;14.052;2022-12-24T07:31:41;4.85;;;1.30;;
65275;SDS011;51875;49.994;14.052;2022-12-24T07:32:57;5.18;;;1.10;;
65275;SDS011;51875;49.994;14.052;2022-12-24T07:34:13;5.57;;;1.50;;
65275;SDS011;51875;49.994;14.052;2022-12-24T07:35:28;3.80;;;1.13;;
65275;SDS011;51875;49.994;14.052;2022-12-24T07:36:44;7.13;;;1.48;;
65275;SDS011;51875;49.994;14.052;2022-12-24T07:38:00;3.78;;;1.25;;
65275;SDS011;51875;49.994;14.052;2022-12-24T07:39:16;3.30;;;1.10;;
65275;SDS011;51875;49.994;14.052;2022-12-24T07:40:32;4.38;;;1.30;;
65275;SDS011;51875;49.994;14.052;2022-12-24T07:41:49;6.70;;;1.33;;
65275;SDS011;51875;49.994;14.052;2022-12-24T07:43:05;7.97;;;2.00;;
65275;SDS011;51875;49.994;14.052;2022-12-24T07:44:20;4.03;;;1.80;;
65275;SDS011;51875;49.994;14.052;2022-12-24T07:45:36;6.72;;;1.67;;
65275;SDS011;51875;49.994;14.052;2022-12-24T07:46:53;6.70;;;1.35;;
65275;SDS011;51875;49.994;14.052;2022-12-24T07:48:09;3.72;;;1.60;;
65275;SDS011;51875;49.994;14.052;2022-12-24T07:49:24;4.95;;;2.00;;
65275;SDS011;51875;49.994;14.052;2022-12-24T07:50:40;5.72;;;1.77;;
65275;SDS011;51875;49.994;14.052;2022-12-24T07:51:56;5.95;;;1.52;;
65275;SDS011;51875;49.994;14.052;2022-12-24T07:53:11;5.47;;;1.55;;
65275;SDS011;51875;49.994;14.052;2022-12-24T07:54:27;9.38;;;1.63;;